sensor_id;sensor_type;location;lat;lon;timestamp;temperature;humidity
49549;DHT22;35450;44.518;7.466;2023-12-22T00:00:17;10.10;73.20
49549;DHT22;35450;44.518;7.466;2023-12-22T00:03:21;10.00;73.50
49549;DHT22;35450;44.518;7.466;2023-12-22T00:06:25;10.20;71.30
49549;DHT22;35450;44.518;7.466;2023-12-22T00:09:29;10.30;70.50
49549;DHT22;35450;44.518;7.466;2023-12-22T00:12:33;10.40;71.10
49549;DHT22;35450;44.518;7.466;2023-12-22T00:15:37;10.40;70.80
49549;DHT22;35450;44.518;7.466;2023-12-22T00:18:41;10.40;70.90
49549;DHT22;35450;44.518;7.466;2023-12-22T00:21:45;10.40;70.50
49549;DHT22;35450;44.518;7.466;2023-12-22T00:24:52;10.40;71.50
49549;DHT22;35450;44.518;7.466;2023-12-22T00:27:56;10.40;71.00
49549;DHT22;35450;44.518;7.466;2023-12-22T00:31:00;10.50;70.00
49549;DHT22;35450;44.518;7.466;2023-12-22T00:34:04;10.50;70.10
49549;DHT22;35450;44.518;7.466;2023-12-22T00:37:08;10.40;71.90
49549;DHT22;35450;44.518;7.466;2023-12-22T00:40:12;10.40;71.00
49549;DHT22;35450;44.518;7.466;2023-12-22T00:43:16;10.40;70.90
49549;DHT22;35450;44.518;7.466;2023-12-22T00:46:21;10.30;71.40
49549;DHT22;35450;44.518;7.466;2023-12-22T00:49:25;10.20;71.00
49549;DHT22;35450;44.518;7.466;2023-12-22T00:52:28;10.30;70.50
49549;DHT22;35450;44.518;7.466;2023-12-22T00:55:32;10.40;70.00
49549;DHT22;35450;44.518;7.466;2023-12-22T00:58:36;10.40;70.80
49549;DHT22;35450;44.518;7.466;2023-12-22T01:01:40;10.40;70.10
49549;DHT22;35450;44.518;7.466;2023-12-22T01:04:44;10.40;70.60
49549;DHT22;35450;44.518;7.466;2023-12-22T01:07:48;10.50;69.60
49549;DHT22;35450;44.518;7.466;2023-12-22T01:10:52;10.40;69.60
49549;DHT22;35450;44.518;7.466;2023-12-22T01:13:56;10.70;68.40
49549;DHT22;35450;44.518;7.466;2023-12-22T01:17:00;10.60;69.70
49549;DHT22;35450;44.518;7.466;2023-12-22T01:20:04;10.70;68.90
49549;DHT22;35450;44.518;7.466;2023-12-22T01:23:09;10.90;67.40
49549;DHT22;35450;44.518;7.466;2023-12-22T01:26:13;10.90;68.20
49549;DHT22;35450;44.518;7.466;2023-12-22T01:29:17;11.00;67.10
49549;DHT22;35450;44.518;7.466;2023-12-22T01:32:21;11.00;67.40
49549;DHT22;35450;44.518;7.466;2023-12-22T01:35:25;11.20;67.50
49549;DHT22;35450;44.518;7.466;2023-12-22T01:38:29;11.10;67.60
49549;DHT22;35450;44.518;7.466;2023-12-22T01:41:33;11.10;67.90
49549;DHT22;35450;44.518;7.466;2023-12-22T01:44:37;11.00;67.70
49549;DHT22;35450;44.518;7.466;2023-12-22T01:47:42;11.00;70.40
49549;DHT22;35450;44.518;7.466;2023-12-22T01:50:46;10.80;70.20
49549;DHT22;35450;44.518;7.466;2023-12-22T01:53:50;10.80;70.30
49549;DHT22;35450;44.518;7.466;2023-12-22T01:56:56;10.80;70.10
49549;DHT22;35450;44.518;7.466;2023-12-22T02:00:00;10.80;70.00
49549;DHT22;35450;44.518;7.466;2023-12-22T02:03:16;10.80;69.80
49549;DHT22;35450;44.518;7.466;2023-12-22T02:06:21;10.80;69.60
49549;DHT22;35450;44.518;7.466;2023-12-22T02:09:25;10.90;69.70
49549;DHT22;35450;44.518;7.466;2023-12-22T02:12:29;10.80;69.90
49549;DHT22;35450;44.518;7.466;2023-12-22T02:15:33;10.60;70.50
49549;DHT22;35450;44.518;7.466;2023-12-22T02:18:39;10.70;70.30
49549;DHT22;35450;44.518;7.466;2023-12-22T02:22:03;10.70;69.90
49549;DHT22;35450;44.518;7.466;2023-12-22T02:25:08;10.70;70.00
49549;DHT22;35450;44.518;7.466;2023-12-22T02:28:16;10.80;69.00
49549;DHT22;35450;44.518;7.466;2023-12-22T02:31:40;11.10;67.10
49549;DHT22;35450;44.518;7.466;2023-12-22T02:34:50;11.20;67.20
49549;DHT22;35450;44.518;7.466;2023-12-22T02:38:00;11.30;66.70
49549;DHT22;35450;44.518;7.466;2023-12-22T02:41:05;11.30;66.50
49549;DHT22;35450;44.518;7.466;2023-12-22T02:44:10;11.40;66.70
49549;DHT22;35450;44.518;7.466;2023-12-22T02:47:14;11.40;66.50
49549;DHT22;35450;44.518;7.466;2023-12-22T02:50:18;11.50;65.60
49549;DHT22;35450;44.518;7.466;2023-12-22T02:53:22;11.60;65.30
49549;DHT22;35450;44.518;7.466;2023-12-22T02:56:25;11.60;65.30
49549;DHT22;35450;44.518;7.466;2023-12-22T02:59:29;11.60;65.10
49549;DHT22;35450;44.518;7.466;2023-12-22T03:02:33;11.70;65.00
49549;DHT22;35450;44.518;7.466;2023-12-22T03:05:37;11.60;64.90
49549;DHT22;35450;44.518;7.466;2023-12-22T03:08:41;11.50;65.40
49549;DHT22;35450;44.518;7.466;2023-12-22T03:11:45;11.60;65.50
49549;DHT22;35450;44.518;7.466;2023-12-22T03:14:49;11.60;65.40
49549;DHT22;35450;44.518;7.466;2023-12-22T03:17:53;11.50;65.50
49549;DHT22;35450;44.518;7.466;2023-12-22T03:20:57;11.50;65.20
49549;DHT22;35450;44.518;7.466;2023-12-22T03:24:01;11.50;66.40
49549;DHT22;35450;44.518;7.466;2023-12-22T03:27:04;11.30;66.50
49549;DHT22;35450;44.518;7.466;2023-12-22T03:30:09;11.30;66.20
49549;DHT22;35450;44.518;7.466;2023-12-22T03:33:13;11.40;66.20
49549;DHT22;35450;44.518;7.466;2023-12-22T03:36:17;11.40;65.40
49549;DHT22;35450;44.518;7.466;2023-12-22T03:39:21;11.40;65.20
49549;DHT22;35450;44.518;7.466;2023-12-22T03:42:25;11.40;64.70
49549;DHT22;35450;44.518;7.466;2023-12-22T03:45:29;11.40;64.90
49549;DHT22;35450;44.518;7.466;2023-12-22T03:48:33;11.50;64.30
49549;DHT22;35450;44.518;7.466;2023-12-22T03:51:37;11.40;64.80
49549;DHT22;35450;44.518;7.466;2023-12-22T03:54:41;11.40;64.70
49549;DHT22;35450;44.518;7.466;2023-12-22T03:57:45;11.40;64.20
49549;DHT22;35450;44.518;7.466;2023-12-22T04:00:49;11.40;64.80
49549;DHT22;35450;44.518;7.466;2023-12-22T04:03:53;11.40;64.90
49549;DHT22;35450;44.518;7.466;2023-12-22T04:06:57;11.30;64.20
49549;DHT22;35450;44.518;7.466;2023-12-22T04:10:01;11.20;65.40
49549;DHT22;35450;44.518;7.466;2023-12-22T04:13:05;11.30;64.10
49549;DHT22;35450;44.518;7.466;2023-12-22T04:16:09;11.30;63.90
49549;DHT22;35450;44.518;7.466;2023-12-22T04:19:13;11.30;63.60
49549;DHT22;35450;44.518;7.466;2023-12-22T04:22:17;11.30;63.60
49549;DHT22;35450;44.518;7.466;2023-12-22T04:25:21;11.30;64.40
49549;DHT22;35450;44.518;7.466;2023-12-22T04:28:26;11.20;63.30
49549;DHT22;35450;44.518;7.466;2023-12-22T04:31:30;11.20;64.30
49549;DHT22;35450;44.518;7.466;2023-12-22T04:34:34;11.20;63.90
49549;DHT22;35450;44.518;7.466;2023-12-22T04:37:38;11.20;62.80
49549;DHT22;35450;44.518;7.466;2023-12-22T04:40:42;11.20;63.90
49549;DHT22;35450;44.518;7.466;2023-12-22T04:43:46;11.20;63.80
49549;DHT22;35450;44.518;7.466;2023-12-22T04:46:51;11.20;63.00
49549;DHT22;35450;44.518;7.466;2023-12-22T04:49:55;11.30;62.80
49549;DHT22;35450;44.518;7.466;2023-12-22T04:52:59;11.30;61.60
49549;DHT22;35450;44.518;7.466;2023-12-22T04:56:03;11.30;61.80
49549;DHT22;35450;44.518;7.466;2023-12-22T04:59:07;11.40;62.30
49549;DHT22;35450;44.518;7.466;2023-12-22T05:02:12;11.30;62.40
49549;DHT22;35450;44.518;7.466;2023-12-22T05:05:15;11.20;62.90
49549;DHT22;35450;44.518;7.466;2023-12-22T05:08:20;11.20;63.40
49549;DHT22;35450;44.518;7.466;2023-12-22T05:11:24;11.10;63.10
49549;DHT22;35450;44.518;7.466;2023-12-22T05:14:28;11.20;62.40
49549;DHT22;35450;44.518;7.466;2023-12-22T05:17:32;11.20;62.60
49549;DHT22;35450;44.518;7.466;2023-12-22T05:20:36;11.10;64.10
49549;DHT22;35450;44.518;7.466;2023-12-22T05:23:40;11.00;63.80
49549;DHT22;35450;44.518;7.466;2023-12-22T05:26:44;10.90;63.60
49549;DHT22;35450;44.518;7.466;2023-12-22T05:29:48;11.00;62.10
49549;DHT22;35450;44.518;7.466;2023-12-22T05:32:52;11.10;62.20
49549;DHT22;35450;44.518;7.466;2023-12-22T05:35:58;11.00;63.70
49549;DHT22;35450;44.518;7.466;2023-12-22T05:39:02;11.10;62.00
49549;DHT22;35450;44.518;7.466;2023-12-22T05:42:06;11.10;61.70
49549;DHT22;35450;44.518;7.466;2023-12-22T05:45:11;11.20;62.50
49549;DHT22;35450;44.518;7.466;2023-12-22T05:48:14;11.20;62.80
49549;DHT22;35450;44.518;7.466;2023-12-22T05:51:18;11.10;62.90
49549;DHT22;35450;44.518;7.466;2023-12-22T05:54:22;11.10;61.50
49549;DHT22;35450;44.518;7.466;2023-12-22T05:57:28;11.10;62.20
49549;DHT22;35450;44.518;7.466;2023-12-22T06:00:32;11.20;61.70
49549;DHT22;35450;44.518;7.466;2023-12-22T06:03:36;11.20;61.80
49549;DHT22;35450;44.518;7.466;2023-12-22T06:06:40;11.20;60.90
49549;DHT22;35450;44.518;7.466;2023-12-22T06:09:44;11.20;60.60
49549;DHT22;35450;44.518;7.466;2023-12-22T06:12:48;11.20;61.00
49549;DHT22;35450;44.518;7.466;2023-12-22T06:15:52;11.20;61.90
49549;DHT22;35450;44.518;7.466;2023-12-22T06:18:56;11.10;61.90
49549;DHT22;35450;44.518;7.466;2023-12-22T06:22:00;11.00;62.40
49549;DHT22;35450;44.518;7.466;2023-12-22T06:25:05;11.00;60.50
49549;DHT22;35450;44.518;7.466;2023-12-22T06:28:11;11.20;59.80
49549;DHT22;35450;44.518;7.466;2023-12-22T06:31:19;11.20;60.60
49549;DHT22;35450;44.518;7.466;2023-12-22T06:34:23;11.20;60.30
49549;DHT22;35450;44.518;7.466;2023-12-22T06:37:29;11.20;59.70
49549;DHT22;35450;44.518;7.466;2023-12-22T06:40:34;11.30;58.80
49549;DHT22;35450;44.518;7.466;2023-12-22T06:43:38;11.30;60.10
49549;DHT22;35450;44.518;7.466;2023-12-22T06:46:42;11.30;58.80
49549;DHT22;35450;44.518;7.466;2023-12-22T06:49:46;11.40;58.70
49549;DHT22;35450;44.518;7.466;2023-12-22T06:52:50;11.40;58.50
49549;DHT22;35450;44.518;7.466;2023-12-22T06:55:54;11.60;56.60
49549;DHT22;35450;44.518;7.466;2023-12-22T06:58:58;11.70;56.90
49549;DHT22;35450;44.518;7.466;2023-12-22T07:02:03;11.70;56.80
49549;DHT22;35450;44.518;7.466;2023-12-22T07:08:13;11.70;57.70
49549;DHT22;35450;44.518;7.466;2023-12-22T07:11:17;11.60;58.50
49549;DHT22;35450;44.518;7.466;2023-12-22T07:14:21;11.60;59.60
49549;DHT22;35450;44.518;7.466;2023-12-22T07:17:25;11.50;60.10
49549;DHT22;35450;44.518;7.466;2023-12-22T07:20:29;11.50;60.40
49549;DHT22;35450;44.518;7.466;2023-12-22T07:23:33;11.30;61.30
49549;DHT22;35450;44.518;7.466;2023-12-22T07:26:37;11.20;61.30
49549;DHT22;35450;44.518;7.466;2023-12-22T07:29:42;11.20;60.50
49549;DHT22;35450;44.518;7.466;2023-12-22T07:32:48;11.30;61.40
49549;DHT22;35450;44.518;7.466;2023-12-22T07:35:56;11.30;60.40
49549;DHT22;35450;44.518;7.466;2023-12-22T07:39:00;11.30;59.30
49549;DHT22;35450;44.518;7.466;2023-12-22T07:42:04;11.30;61.20
49549;DHT22;35450;44.518;7.466;2023-12-22T07:45:10;11.30;60.60
49549;DHT22;35450;44.518;7.466;2023-12-22T07:48:18;11.30;60.20
49549;DHT22;35450;44.518;7.466;2023-12-22T07:51:22;11.40;57.90
49549;DHT22;35450;44.518;7.466;2023-12-22T07:54:26;11.40;57.70
49549;DHT22;35450;44.518;7.466;2023-12-22T07:57:31;11.50;57.80
49549;DHT22;35450;44.518;7.466;2023-12-22T08:00:35;11.70;57.20
49549;DHT22;35450;44.518;7.466;2023-12-22T08:03:40;11.80;56.70
49549;DHT22;35450;44.518;7.466;2023-12-22T08:06:44;11.90;56.50
49549;DHT22;35450;44.518;7.466;2023-12-22T08:09:49;11.90;56.50
49549;DHT22;35450;44.518;7.466;2023-12-22T08:12:53;12.00;56.30
49549;DHT22;35450;44.518;7.466;2023-12-22T08:15:57;12.00;57.10
49549;DHT22;35450;44.518;7.466;2023-12-22T08:19:01;12.10;57.40
49549;DHT22;35450;44.518;7.466;2023-12-22T08:22:05;12.10;58.10
49549;DHT22;35450;44.518;7.466;2023-12-22T08:25:10;12.10;57.80
49549;DHT22;35450;44.518;7.466;2023-12-22T08:28:14;12.10;57.60
49549;DHT22;35450;44.518;7.466;2023-12-22T08:31:17;12.10;57.50
49549;DHT22;35450;44.518;7.466;2023-12-22T08:34:22;12.20;57.30
49549;DHT22;35450;44.518;7.466;2023-12-22T08:37:27;12.20;58.70
49549;DHT22;35450;44.518;7.466;2023-12-22T08:40:31;12.20;58.30
49549;DHT22;35450;44.518;7.466;2023-12-22T08:43:35;12.20;58.20
49549;DHT22;35450;44.518;7.466;2023-12-22T08:46:39;12.40;57.50
49549;DHT22;35450;44.518;7.466;2023-12-22T08:49:44;12.40;58.10
49549;DHT22;35450;44.518;7.466;2023-12-22T08:52:48;12.40;58.40
49549;DHT22;35450;44.518;7.466;2023-12-22T08:55:52;12.40;59.40
49549;DHT22;35450;44.518;7.466;2023-12-22T08:58:56;12.40;59.40
49549;DHT22;35450;44.518;7.466;2023-12-22T09:02:02;12.50;59.70
49549;DHT22;35450;44.518;7.466;2023-12-22T09:05:07;12.50;59.00
49549;DHT22;35450;44.518;7.466;2023-12-22T09:08:11;12.60;59.50
49549;DHT22;35450;44.518;7.466;2023-12-22T09:11:20;12.60;59.50
49549;DHT22;35450;44.518;7.466;2023-12-22T09:14:24;12.70;59.40
49549;DHT22;35450;44.518;7.466;2023-12-22T09:17:28;12.70;59.10
49549;DHT22;35450;44.518;7.466;2023-12-22T09:20:33;12.70;59.10
49549;DHT22;35450;44.518;7.466;2023-12-22T09:23:36;12.80;59.10
49549;DHT22;35450;44.518;7.466;2023-12-22T09:26:41;12.80;60.00
49549;DHT22;35450;44.518;7.466;2023-12-22T09:29:45;12.90;59.30
49549;DHT22;35450;44.518;7.466;2023-12-22T09:32:49;12.90;59.00
49549;DHT22;35450;44.518;7.466;2023-12-22T09:35:53;12.90;59.20
49549;DHT22;35450;44.518;7.466;2023-12-22T09:38:57;12.90;59.90
49549;DHT22;35450;44.518;7.466;2023-12-22T09:42:02;12.90;59.70
49549;DHT22;35450;44.518;7.466;2023-12-22T09:45:08;13.00;59.70
49549;DHT22;35450;44.518;7.466;2023-12-22T09:48:18;13.00;58.90
49549;DHT22;35450;44.518;7.466;2023-12-22T09:51:31;13.10;59.00
49549;DHT22;35450;44.518;7.466;2023-12-22T09:54:37;13.10;58.90
49549;DHT22;35450;44.518;7.466;2023-12-22T09:57:42;13.10;59.70
49549;DHT22;35450;44.518;7.466;2023-12-22T10:00:47;13.10;59.80
49549;DHT22;35450;44.518;7.466;2023-12-22T10:03:52;13.20;60.80
49549;DHT22;35450;44.518;7.466;2023-12-22T10:06:58;13.20;60.00
49549;DHT22;35450;44.518;7.466;2023-12-22T10:10:05;13.30;59.90
49549;DHT22;35450;44.518;7.466;2023-12-22T10:13:11;13.30;59.10
49549;DHT22;35450;44.518;7.466;2023-12-22T10:16:16;13.30;59.40
49549;DHT22;35450;44.518;7.466;2023-12-22T10:19:20;13.40;59.70
49549;DHT22;35450;44.518;7.466;2023-12-22T10:22:24;13.40;60.60
49549;DHT22;35450;44.518;7.466;2023-12-22T10:25:29;13.30;60.00
49549;DHT22;35450;44.518;7.466;2023-12-22T10:28:33;13.30;59.80
49549;DHT22;35450;44.518;7.466;2023-12-22T10:31:40;13.30;60.10
49549;DHT22;35450;44.518;7.466;2023-12-22T10:34:44;13.20;59.80
49549;DHT22;35450;44.518;7.466;2023-12-22T10:37:49;13.30;59.80
49549;DHT22;35450;44.518;7.466;2023-12-22T10:40:57;13.30;59.70
49549;DHT22;35450;44.518;7.466;2023-12-22T10:44:01;13.40;59.40
49549;DHT22;35450;44.518;7.466;2023-12-22T10:47:05;13.40;59.50
49549;DHT22;35450;44.518;7.466;2023-12-22T10:50:12;13.50;59.70
49549;DHT22;35450;44.518;7.466;2023-12-22T10:53:17;13.60;59.40
49549;DHT22;35450;44.518;7.466;2023-12-22T10:56:21;13.60;59.70
49549;DHT22;35450;44.518;7.466;2023-12-22T10:59:29;13.60;60.00
49549;DHT22;35450;44.518;7.466;2023-12-22T11:02:35;13.60;60.90
49549;DHT22;35450;44.518;7.466;2023-12-22T11:05:44;13.60;60.10
49549;DHT22;35450;44.518;7.466;2023-12-22T11:08:52;13.60;59.70
49549;DHT22;35450;44.518;7.466;2023-12-22T11:11:57;13.60;60.00
49549;DHT22;35450;44.518;7.466;2023-12-22T11:15:03;13.70;60.60
49549;DHT22;35450;44.518;7.466;2023-12-22T11:18:10;13.70;60.10
49549;DHT22;35450;44.518;7.466;2023-12-22T11:21:14;13.80;59.80
49549;DHT22;35450;44.518;7.466;2023-12-22T11:24:18;13.90;61.20
49549;DHT22;35450;44.518;7.466;2023-12-22T11:27:23;13.80;60.70
49549;DHT22;35450;44.518;7.466;2023-12-22T11:30:29;13.90;60.30
49549;DHT22;35450;44.518;7.466;2023-12-22T11:33:35;13.90;59.50
49549;DHT22;35450;44.518;7.466;2023-12-22T11:36:41;13.90;59.60
49549;DHT22;35450;44.518;7.466;2023-12-22T11:39:46;13.90;59.60
49549;DHT22;35450;44.518;7.466;2023-12-22T11:42:52;14.00;59.70
49549;DHT22;35450;44.518;7.466;2023-12-22T11:46:02;14.00;59.60
49549;DHT22;35450;44.518;7.466;2023-12-22T11:49:06;14.10;59.50
49549;DHT22;35450;44.518;7.466;2023-12-22T11:52:15;14.10;59.50
49549;DHT22;35450;44.518;7.466;2023-12-22T11:59:02;14.10;59.60
49549;DHT22;35450;44.518;7.466;2023-12-22T12:02:08;14.10;59.80
49549;DHT22;35450;44.518;7.466;2023-12-22T12:05:13;14.10;60.60
49549;DHT22;35450;44.518;7.466;2023-12-22T12:08:29;14.30;60.20
49549;DHT22;35450;44.518;7.466;2023-12-22T12:14:55;14.30;60.40
49549;DHT22;35450;44.518;7.466;2023-12-22T12:18:02;14.30;60.00
49549;DHT22;35450;44.518;7.466;2023-12-22T12:21:07;14.30;60.50
49549;DHT22;35450;44.518;7.466;2023-12-22T12:24:12;14.30;60.60
49549;DHT22;35450;44.518;7.466;2023-12-22T12:27:20;14.30;61.00
49549;DHT22;35450;44.518;7.466;2023-12-22T12:30:24;14.30;60.30
49549;DHT22;35450;44.518;7.466;2023-12-22T12:33:31;14.30;60.90
49549;DHT22;35450;44.518;7.466;2023-12-22T12:36:35;14.40;61.50
49549;DHT22;35450;44.518;7.466;2023-12-22T12:39:41;14.40;61.40
49549;DHT22;35450;44.518;7.466;2023-12-22T12:42:47;14.40;60.90
49549;DHT22;35450;44.518;7.466;2023-12-22T12:45:52;14.40;61.60
49549;DHT22;35450;44.518;7.466;2023-12-22T12:49:06;14.40;61.20
49549;DHT22;35450;44.518;7.466;2023-12-22T12:52:14;14.50;60.50
49549;DHT22;35450;44.518;7.466;2023-12-22T12:55:22;14.40;61.50
49549;DHT22;35450;44.518;7.466;2023-12-22T12:58:33;14.50;61.40
49549;DHT22;35450;44.518;7.466;2023-12-22T13:01:45;14.50;62.20
49549;DHT22;35450;44.518;7.466;2023-12-22T13:04:49;14.60;63.00
49549;DHT22;35450;44.518;7.466;2023-12-22T13:08:12;14.60;62.90
49549;DHT22;35450;44.518;7.466;2023-12-22T13:11:32;14.60;62.00
49549;DHT22;35450;44.518;7.466;2023-12-22T13:14:36;14.60;61.90
49549;DHT22;35450;44.518;7.466;2023-12-22T13:17:40;14.70;62.50
49549;DHT22;35450;44.518;7.466;2023-12-22T13:20:44;14.70;63.40
49549;DHT22;35450;44.518;7.466;2023-12-22T13:24:11;14.70;63.40
49549;DHT22;35450;44.518;7.466;2023-12-22T13:27:15;14.80;63.50
49549;DHT22;35450;44.518;7.466;2023-12-22T13:33:36;14.90;62.90
49549;DHT22;35450;44.518;7.466;2023-12-22T13:36:41;15.00;63.00
49549;DHT22;35450;44.518;7.466;2023-12-22T13:39:46;15.00;62.80
49549;DHT22;35450;44.518;7.466;2023-12-22T13:42:57;14.90;63.50
49549;DHT22;35450;44.518;7.466;2023-12-22T13:46:01;14.90;62.80
49549;DHT22;35450;44.518;7.466;2023-12-22T13:49:08;14.90;62.30
49549;DHT22;35450;44.518;7.466;2023-12-22T13:52:31;14.80;62.20
49549;DHT22;35450;44.518;7.466;2023-12-22T13:55:41;14.90;66.30
49549;DHT22;35450;44.518;7.466;2023-12-22T13:58:47;14.80;66.60
49549;DHT22;35450;44.518;7.466;2023-12-22T14:01:51;14.80;69.10
49549;DHT22;35450;44.518;7.466;2023-12-22T14:04:55;14.90;69.20
49549;DHT22;35450;44.518;7.466;2023-12-22T14:08:00;15.00;71.20
49549;DHT22;35450;44.518;7.466;2023-12-22T14:11:04;15.10;67.70
49549;DHT22;35450;44.518;7.466;2023-12-22T14:14:08;15.30;69.70
49549;DHT22;35450;44.518;7.466;2023-12-22T14:17:12;15.30;69.70
49549;DHT22;35450;44.518;7.466;2023-12-22T14:20:16;15.30;67.90
49549;DHT22;35450;44.518;7.466;2023-12-22T14:23:20;15.30;67.50
49549;DHT22;35450;44.518;7.466;2023-12-22T14:26:25;15.30;68.00
49549;DHT22;35450;44.518;7.466;2023-12-22T14:29:29;15.20;67.70
49549;DHT22;35450;44.518;7.466;2023-12-22T14:32:33;15.20;65.90
49549;DHT22;35450;44.518;7.466;2023-12-22T14:35:37;15.30;67.70
49549;DHT22;35450;44.518;7.466;2023-12-22T14:38:41;15.20;68.90
49549;DHT22;35450;44.518;7.466;2023-12-22T14:41:45;15.20;72.20
49549;DHT22;35450;44.518;7.466;2023-12-22T14:44:50;15.20;70.30
49549;DHT22;35450;44.518;7.466;2023-12-22T14:47:55;15.20;70.70
49549;DHT22;35450;44.518;7.466;2023-12-22T14:50:59;15.20;71.50
49549;DHT22;35450;44.518;7.466;2023-12-22T14:54:06;15.20;68.00
49549;DHT22;35450;44.518;7.466;2023-12-22T14:57:10;15.20;65.70
49549;DHT22;35450;44.518;7.466;2023-12-22T15:00:15;15.20;66.40
49549;DHT22;35450;44.518;7.466;2023-12-22T15:03:20;15.20;66.30
49549;DHT22;35450;44.518;7.466;2023-12-22T15:06:24;15.10;64.90
49549;DHT22;35450;44.518;7.466;2023-12-22T15:09:28;15.10;61.70
49549;DHT22;35450;44.518;7.466;2023-12-22T15:12:32;15.20;62.70
49549;DHT22;35450;44.518;7.466;2023-12-22T15:15:39;14.90;63.10
49549;DHT22;35450;44.518;7.466;2023-12-22T15:18:43;14.90;60.50
49549;DHT22;35450;44.518;7.466;2023-12-22T15:21:47;14.90;53.10
49549;DHT22;35450;44.518;7.466;2023-12-22T15:24:51;15.10;49.30
49549;DHT22;35450;44.518;7.466;2023-12-22T15:27:55;15.20;49.30
49549;DHT22;35450;44.518;7.466;2023-12-22T15:30:59;15.50;46.70
49549;DHT22;35450;44.518;7.466;2023-12-22T15:34:04;15.70;45.80
49549;DHT22;35450;44.518;7.466;2023-12-22T15:37:09;15.60;46.70
49549;DHT22;35450;44.518;7.466;2023-12-22T15:40:20;15.70;44.20
49549;DHT22;35450;44.518;7.466;2023-12-22T15:43:24;15.80;44.70
49549;DHT22;35450;44.518;7.466;2023-12-22T15:46:28;15.90;42.00
49549;DHT22;35450;44.518;7.466;2023-12-22T15:49:32;16.00;42.20
49549;DHT22;35450;44.518;7.466;2023-12-22T15:52:41;16.00;42.70
49549;DHT22;35450;44.518;7.466;2023-12-22T15:55:45;15.90;41.60
49549;DHT22;35450;44.518;7.466;2023-12-22T15:58:52;15.80;43.80
49549;DHT22;35450;44.518;7.466;2023-12-22T16:01:58;15.90;42.90
49549;DHT22;35450;44.518;7.466;2023-12-22T16:05:02;16.10;41.10
49549;DHT22;35450;44.518;7.466;2023-12-22T16:08:07;16.00;44.40
49549;DHT22;35450;44.518;7.466;2023-12-22T16:11:14;16.30;41.10
49549;DHT22;35450;44.518;7.466;2023-12-22T16:14:18;16.40;39.30
49549;DHT22;35450;44.518;7.466;2023-12-22T16:17:22;16.50;39.40
49549;DHT22;35450;44.518;7.466;2023-12-22T16:20:26;16.60;39.10
49549;DHT22;35450;44.518;7.466;2023-12-22T16:23:34;16.60;38.40
49549;DHT22;35450;44.518;7.466;2023-12-22T16:27:10;16.50;40.40
49549;DHT22;35450;44.518;7.466;2023-12-22T16:30:15;16.10;41.90
49549;DHT22;35450;44.518;7.466;2023-12-22T16:33:19;15.90;41.50
49549;DHT22;35450;44.518;7.466;2023-12-22T16:36:23;15.80;39.90
49549;DHT22;35450;44.518;7.466;2023-12-22T16:39:28;16.10;38.60
49549;DHT22;35450;44.518;7.466;2023-12-22T16:42:32;16.10;39.30
49549;DHT22;35450;44.518;7.466;2023-12-22T16:45:36;15.90;40.30
49549;DHT22;35450;44.518;7.466;2023-12-22T16:48:40;15.90;39.80
49549;DHT22;35450;44.518;7.466;2023-12-22T16:51:44;16.10;38.80
49549;DHT22;35450;44.518;7.466;2023-12-22T16:54:48;15.90;40.50
49549;DHT22;35450;44.518;7.466;2023-12-22T16:57:52;15.90;40.10
49549;DHT22;35450;44.518;7.466;2023-12-22T17:00:59;15.70;40.80
49549;DHT22;35450;44.518;7.466;2023-12-22T17:04:06;15.60;38.60
49549;DHT22;35450;44.518;7.466;2023-12-22T17:07:10;15.60;40.10
49549;DHT22;35450;44.518;7.466;2023-12-22T17:10:21;15.50;40.80
49549;DHT22;35450;44.518;7.466;2023-12-22T17:13:25;15.50;40.80
49549;DHT22;35450;44.518;7.466;2023-12-22T17:16:29;15.40;41.60
49549;DHT22;35450;44.518;7.466;2023-12-22T17:19:33;15.40;39.10
49549;DHT22;35450;44.518;7.466;2023-12-22T17:22:38;15.50;39.70
49549;DHT22;35450;44.518;7.466;2023-12-22T17:25:43;15.50;39.10
49549;DHT22;35450;44.518;7.466;2023-12-22T17:28:47;15.70;38.10
49549;DHT22;35450;44.518;7.466;2023-12-22T17:31:53;15.50;41.60
49549;DHT22;35450;44.518;7.466;2023-12-22T17:35:00;15.30;41.10
49549;DHT22;35450;44.518;7.466;2023-12-22T17:38:04;15.20;43.10
49549;DHT22;35450;44.518;7.466;2023-12-22T17:41:10;14.90;44.40
49549;DHT22;35450;44.518;7.466;2023-12-22T17:44:14;14.80;44.30
49549;DHT22;35450;44.518;7.466;2023-12-22T17:47:19;14.70;45.60
49549;DHT22;35450;44.518;7.466;2023-12-22T17:50:23;14.50;45.60
49549;DHT22;35450;44.518;7.466;2023-12-22T17:53:26;14.50;44.60
49549;DHT22;35450;44.518;7.466;2023-12-22T17:56:33;14.30;44.80
49549;DHT22;35450;44.518;7.466;2023-12-22T17:59:39;14.80;38.00
49549;DHT22;35450;44.518;7.466;2023-12-22T18:02:44;15.30;40.60
49549;DHT22;35450;44.518;7.466;2023-12-22T18:05:48;15.40;41.20
49549;DHT22;35450;44.518;7.466;2023-12-22T18:08:52;15.30;42.00
49549;DHT22;35450;44.518;7.466;2023-12-22T18:11:57;15.40;38.80
49549;DHT22;35450;44.518;7.466;2023-12-22T18:15:01;15.60;40.00
49549;DHT22;35450;44.518;7.466;2023-12-22T18:18:06;15.30;41.90
49549;DHT22;35450;44.518;7.466;2023-12-22T18:21:10;15.20;40.30
49549;DHT22;35450;44.518;7.466;2023-12-22T18:24:14;15.10;41.70
49549;DHT22;35450;44.518;7.466;2023-12-22T18:27:18;15.00;42.20
49549;DHT22;35450;44.518;7.466;2023-12-22T18:30:23;14.90;42.50
49549;DHT22;35450;44.518;7.466;2023-12-22T18:33:27;14.60;43.60
49549;DHT22;35450;44.518;7.466;2023-12-22T18:36:33;14.80;39.70
49549;DHT22;35450;44.518;7.466;2023-12-22T18:39:37;14.60;44.30
49549;DHT22;35450;44.518;7.466;2023-12-22T18:42:41;14.50;44.30
49549;DHT22;35450;44.518;7.466;2023-12-22T18:45:45;14.40;45.00
49549;DHT22;35450;44.518;7.466;2023-12-22T18:48:49;14.40;40.90
49549;DHT22;35450;44.518;7.466;2023-12-22T18:51:53;14.50;42.60
49549;DHT22;35450;44.518;7.466;2023-12-22T18:54:57;14.40;43.90
49549;DHT22;35450;44.518;7.466;2023-12-22T18:58:02;14.60;39.50
49549;DHT22;35450;44.518;7.466;2023-12-22T19:01:06;14.60;43.80
49549;DHT22;35450;44.518;7.466;2023-12-22T19:04:11;14.50;41.60
49549;DHT22;35450;44.518;7.466;2023-12-22T19:07:15;15.20;38.40
49549;DHT22;35450;44.518;7.466;2023-12-22T19:10:22;15.30;40.80
49549;DHT22;35450;44.518;7.466;2023-12-22T19:13:25;15.00;43.60
49549;DHT22;35450;44.518;7.466;2023-12-22T19:16:35;14.80;43.30
49549;DHT22;35450;44.518;7.466;2023-12-22T19:19:38;14.80;40.70
49549;DHT22;35450;44.518;7.466;2023-12-22T19:22:48;14.70;43.30
49549;DHT22;35450;44.518;7.466;2023-12-22T19:26:01;15.30;37.30
49549;DHT22;35450;44.518;7.466;2023-12-22T19:29:07;15.60;38.10
49549;DHT22;35450;44.518;7.466;2023-12-22T19:32:11;15.40;40.30
49549;DHT22;35450;44.518;7.466;2023-12-22T19:35:18;15.10;42.30
49549;DHT22;35450;44.518;7.466;2023-12-22T19:38:24;14.90;43.10
49549;DHT22;35450;44.518;7.466;2023-12-22T19:41:30;14.70;40.70